Weser, Texas
Current Conditions -  °F | °C
As of 4:35 AM on Saturday 25 Oct 2014 (Local Time) from KBEA Reporting Station
Clear Clear  
Wind Chill: 18°   Ceiling: Unl
Heat Index: 18°   Visibility: 10mi
Dew Point: 15°   Wind: 0mph
Humidity: 83%   Direction: NA
Pressure: 30.13"   Gusts: NA
Location:  28.6563°N, 97.4287°W
Report Text: KBEA 250935Z AUTO 00000KT 10SM CLR 18/15 A3013 RMK AO2 T01800151
Loading
Personal Weather Stations






























Interactive Weather Map
Tropical Storm Tracking
New forecast layout! Learn more

10-Day Weather Forecast

Advertisements
Track Severe Weather on mobile